sensor_id;sensor_type;location;lat;lon;timestamp;pressure;altitude;pressure_sealevel;temperature;humidity
68793;BME280;55778;54.346;10.210;2023-03-13T00:01:16;99643.94;;;6.69;100.00
68793;BME280;55778;54.346;10.210;2023-03-13T00:03:42;99636.69;;;6.70;100.00
68793;BME280;55778;54.346;10.210;2023-03-13T00:06:08;99644.38;;;6.74;100.00
68793;BME280;55778;54.346;10.210;2023-03-13T00:08:33;99635.38;;;6.74;100.00
68793;BME280;55778;54.346;10.210;2023-03-13T00:11:07;99635.53;;;6.72;100.00
68793;BME280;55778;54.346;10.210;2023-03-13T00:13:33;99627.56;;;6.71;100.00
68793;BME280;55778;54.346;10.210;2023-03-13T00:16:07;99625.56;;;6.73;100.00
68793;BME280;55778;54.346;10.210;2023-03-13T00:18:33;99623.72;;;6.73;100.00
68793;BME280;55778;54.346;10.210;2023-03-13T00:21:06;99623.56;;;6.75;100.00
68793;BME280;55778;54.346;10.210;2023-03-13T00:23:34;99615.31;;;6.76;100.00
68793;BME280;55778;54.346;10.210;2023-03-13T00:26:04;99616.13;;;6.77;100.00
68793;BME280;55778;54.346;10.210;2023-03-13T00:28:30;99606.47;;;6.74;100.00
68793;BME280;55778;54.346;10.210;2023-03-13T00:31:13;99602.31;;;6.80;100.00
68793;BME280;55778;54.346;10.210;2023-03-13T00:33:41;99598.75;;;6.79;100.00
68793;BME280;55778;54.346;10.210;2023-03-13T00:36:12;99599.91;;;6.77;100.00
68793;BME280;55778;54.346;10.210;2023-03-13T00:38:38;99586.66;;;6.74;100.00
68793;BME280;55778;54.346;10.210;2023-03-13T00:41:15;99589.38;;;6.74;100.00
68793;BME280;55778;54.346;10.210;2023-03-13T00:43:42;99582.09;;;6.74;100.00
68793;BME280;55778;54.346;10.210;2023-03-13T00:46:08;99577.56;;;6.75;100.00
68793;BME280;55778;54.346;10.210;2023-03-13T00:48:34;99564.03;;;6.75;100.00
68793;BME280;55778;54.346;10.210;2023-03-13T00:51:01;99559.28;;;6.77;100.00
68793;BME280;55778;54.346;10.210;2023-03-13T00:53:28;99565.88;;;6.74;100.00
68793;BME280;55778;54.346;10.210;2023-03-13T00:58:22;99562.16;;;6.75;100.00
68793;BME280;55778;54.346;10.210;2023-03-13T01:00:48;99560.28;;;6.76;100.00
68793;BME280;55778;54.346;10.210;2023-03-13T01:03:14;99547.38;;;6.70;100.00
68793;BME280;55778;54.346;10.210;2023-03-13T01:05:39;99546.34;;;6.71;100.00
68793;BME280;55778;54.346;10.210;2023-03-13T01:08:05;99536.09;;;6.74;100.00
68793;BME280;55778;54.346;10.210;2023-03-13T01:10:30;99536.53;;;6.70;100.00
68793;BME280;55778;54.346;10.210;2023-03-13T01:12:55;99540.63;;;6.74;100.00
68793;BME280;55778;54.346;10.210;2023-03-13T01:15:21;99544.22;;;6.74;100.00
68793;BME280;55778;54.346;10.210;2023-03-13T01:17:46;99549.78;;;6.73;100.00
68793;BME280;55778;54.346;10.210;2023-03-13T01:20:12;99538.22;;;6.71;100.00
68793;BME280;55778;54.346;10.210;2023-03-13T01:22:37;99536.09;;;6.74;100.00
68793;BME280;55778;54.346;10.210;2023-03-13T01:25:03;99536.69;;;6.68;100.00
68793;BME280;55778;54.346;10.210;2023-03-13T01:27:29;99531.84;;;6.72;100.00
68793;BME280;55778;54.346;10.210;2023-03-13T01:29:55;99529.44;;;6.69;100.00
68793;BME280;55778;54.346;10.210;2023-03-13T01:32:20;99520.00;;;6.73;100.00
68793;BME280;55778;54.346;10.210;2023-03-13T01:34:46;99512.88;;;6.72;100.00
68793;BME280;55778;54.346;10.210;2023-03-13T01:37:11;99509.72;;;6.76;100.00
68793;BME280;55778;54.346;10.210;2023-03-13T01:39:37;99502.44;;;6.77;100.00
68793;BME280;55778;54.346;10.210;2023-03-13T01:42:03;99494.47;;;6.75;100.00
68793;BME280;55778;54.346;10.210;2023-03-13T01:44:29;99489.59;;;6.79;100.00
68793;BME280;55778;54.346;10.210;2023-03-13T01:46:54;99485.06;;;6.79;100.00
68793;BME280;55778;54.346;10.210;2023-03-13T01:51:49;99477.75;;;6.80;100.00
68793;BME280;55778;54.346;10.210;2023-03-13T01:54:24;99469.50;;;6.81;100.00
68793;BME280;55778;54.346;10.210;2023-03-13T01:57:12;99460.22;;;6.84;100.00
68793;BME280;55778;54.346;10.210;2023-03-13T01:59:43;99452.25;;;6.82;100.00
68793;BME280;55778;54.346;10.210;2023-03-13T02:02:12;99444.66;;;6.86;100.00
68793;BME280;55778;54.346;10.210;2023-03-13T02:04:41;99445.06;;;6.91;100.00
68793;BME280;55778;54.346;10.210;2023-03-13T02:07:12;99442.34;;;6.91;100.00
68793;BME280;55778;54.346;10.210;2023-03-13T02:09:39;99434.06;;;6.92;100.00
68793;BME280;55778;54.346;10.210;2023-03-13T02:12:08;99426.41;;;6.88;100.00
68793;BME280;55778;54.346;10.210;2023-03-13T02:14:37;99419.81;;;6.90;100.00
68793;BME280;55778;54.346;10.210;2023-03-13T02:17:04;99416.44;;;6.88;100.00
68793;BME280;55778;54.346;10.210;2023-03-13T02:24:55;99400.34;;;6.87;100.00
68793;BME280;55778;54.346;10.210;2023-03-13T02:27:23;99390.19;;;6.89;100.00
68793;BME280;55778;54.346;10.210;2023-03-13T02:29:48;99384.09;;;6.87;100.00
68793;BME280;55778;54.346;10.210;2023-03-13T02:32:15;99375.19;;;6.94;100.00
68793;BME280;55778;54.346;10.210;2023-03-13T02:34:41;99372.81;;;6.91;100.00
68793;BME280;55778;54.346;10.210;2023-03-13T02:37:08;99362.13;;;6.90;100.00
68793;BME280;55778;54.346;10.210;2023-03-13T02:39:36;99364.38;;;6.94;100.00
68793;BME280;55778;54.346;10.210;2023-03-13T02:42:03;99357.69;;;6.89;100.00
68793;BME280;55778;54.346;10.210;2023-03-13T02:44:29;99347.88;;;6.88;100.00
68793;BME280;55778;54.346;10.210;2023-03-13T02:46:55;99353.47;;;6.86;100.00
68793;BME280;55778;54.346;10.210;2023-03-13T02:49:28;99337.13;;;6.78;100.00
68793;BME280;55778;54.346;10.210;2023-03-13T02:51:57;99335.44;;;6.77;100.00
68793;BME280;55778;54.346;10.210;2023-03-13T02:54:25;99330.03;;;6.77;100.00
68793;BME280;55778;54.346;10.210;2023-03-13T02:56:57;99323.91;;;6.75;100.00
68793;BME280;55778;54.346;10.210;2023-03-13T02:59:24;99329.47;;;6.74;100.00
68793;BME280;55778;54.346;10.210;2023-03-13T03:01:50;99323.41;;;6.72;100.00
68793;BME280;55778;54.346;10.210;2023-03-13T03:04:23;99309.47;;;6.67;100.00
68793;BME280;55778;54.346;10.210;2023-03-13T03:06:50;99313.81;;;6.60;100.00
68793;BME280;55778;54.346;10.210;2023-03-13T03:09:16;99316.22;;;6.63;100.00
68793;BME280;55778;54.346;10.210;2023-03-13T03:11:42;99314.50;;;6.62;100.00
68793;BME280;55778;54.346;10.210;2023-03-13T03:14:08;99302.84;;;6.61;100.00
68793;BME280;55778;54.346;10.210;2023-03-13T03:16:34;99293.53;;;6.64;100.00
68793;BME280;55778;54.346;10.210;2023-03-13T03:18:59;99287.44;;;6.62;100.00
68793;BME280;55778;54.346;10.210;2023-03-13T03:21:25;99282.72;;;6.64;100.00
68793;BME280;55778;54.346;10.210;2023-03-13T03:23:50;99278.16;;;6.64;100.00
68793;BME280;55778;54.346;10.210;2023-03-13T03:26:16;99276.28;;;6.65;100.00
68793;BME280;55778;54.346;10.210;2023-03-13T03:28:42;99274.44;;;6.65;100.00
68793;BME280;55778;54.346;10.210;2023-03-13T03:31:10;99268.00;;;6.66;100.00
68793;BME280;55778;54.346;10.210;2023-03-13T03:33:36;99260.03;;;6.65;100.00
68793;BME280;55778;54.346;10.210;2023-03-13T03:36:04;99260.91;;;6.65;100.00
68793;BME280;55778;54.346;10.210;2023-03-13T03:38:30;99254.47;;;6.66;100.00
68793;BME280;55778;54.346;10.210;2023-03-13T03:40:55;99238.25;;;6.66;100.00
68793;BME280;55778;54.346;10.210;2023-03-13T03:43:21;99242.13;;;6.64;100.00
68793;BME280;55778;54.346;10.210;2023-03-13T03:45:46;99234.00;;;6.64;100.00
68793;BME280;55778;54.346;10.210;2023-03-13T03:48:12;99229.59;;;6.63;100.00
68793;BME280;55778;54.346;10.210;2023-03-13T03:50:37;99217.75;;;6.64;100.00
68793;BME280;55778;54.346;10.210;2023-03-13T03:53:02;99218.78;;;6.63;100.00
68793;BME280;55778;54.346;10.210;2023-03-13T03:55:28;99209.97;;;6.61;100.00
68793;BME280;55778;54.346;10.210;2023-03-13T03:57:53;99200.31;;;6.58;100.00
68793;BME280;55778;54.346;10.210;2023-03-13T04:00:19;99198.47;;;6.59;100.00
68793;BME280;55778;54.346;10.210;2023-03-13T04:02:44;99192.03;;;6.60;100.00
68793;BME280;55778;54.346;10.210;2023-03-13T04:05:10;99182.03;;;6.60;100.00
68793;BME280;55778;54.346;10.210;2023-03-13T04:07:35;99170.38;;;6.60;100.00
68793;BME280;55778;54.346;10.210;2023-03-13T04:10:02;99162.25;;;6.60;100.00
68793;BME280;55778;54.346;10.210;2023-03-13T04:12:28;99154.97;;;6.60;100.00
68793;BME280;55778;54.346;10.210;2023-03-13T04:14:53;99148.88;;;6.58;100.00
68793;BME280;55778;54.346;10.210;2023-03-13T04:17:18;99130.28;;;6.63;100.00
68793;BME280;55778;54.346;10.210;2023-03-13T04:19:44;99132.19;;;6.63;100.00
68793;BME280;55778;54.346;10.210;2023-03-13T04:22:09;99123.03;;;6.64;100.00
68793;BME280;55778;54.346;10.210;2023-03-13T04:24:34;99120.16;;;6.65;100.00
68793;BME280;55778;54.346;10.210;2023-03-13T04:27:00;99112.75;;;6.67;100.00
68793;BME280;55778;54.346;10.210;2023-03-13T04:29:28;99102.44;;;6.71;100.00
68793;BME280;55778;54.346;10.210;2023-03-13T04:31:53;99095.16;;;6.71;100.00
68793;BME280;55778;54.346;10.210;2023-03-13T04:34:19;99094.31;;;6.71;100.00
68793;BME280;55778;54.346;10.210;2023-03-13T04:36:45;99088.56;;;6.74;100.00
68793;BME280;55778;54.346;10.210;2023-03-13T04:39:10;99083.69;;;6.77;100.00
68793;BME280;55778;54.346;10.210;2023-03-13T04:41:35;99076.25;;;6.79;100.00
68793;BME280;55778;54.346;10.210;2023-03-13T04:44:01;99066.09;;;6.81;100.00
68793;BME280;55778;54.346;10.210;2023-03-13T04:46:26;99063.22;;;6.83;100.00
68793;BME280;55778;54.346;10.210;2023-03-13T04:48:52;99055.09;;;6.83;100.00
68793;BME280;55778;54.346;10.210;2023-03-13T04:51:17;99048.72;;;6.84;100.00
68793;BME280;55778;54.346;10.210;2023-03-13T04:53:42;99044.97;;;6.85;100.00
68793;BME280;55778;54.346;10.210;2023-03-13T04:56:09;99049.38;;;6.86;100.00
68793;BME280;55778;54.346;10.210;2023-03-13T04:58:35;99036.69;;;6.86;100.00
68793;BME280;55778;54.346;10.210;2023-03-13T05:01:00;99022.13;;;6.87;100.00
68793;BME280;55778;54.346;10.210;2023-03-13T05:03:26;99025.69;;;6.88;100.00
68793;BME280;55778;54.346;10.210;2023-03-13T05:05:51;99008.44;;;6.89;100.00
68793;BME280;55778;54.346;10.210;2023-03-13T05:08:17;99007.94;;;6.93;100.00
68793;BME280;55778;54.346;10.210;2023-03-13T05:10:43;98996.09;;;6.94;100.00
68793;BME280;55778;54.346;10.210;2023-03-13T05:13:08;98997.09;;;6.93;100.00
68793;BME280;55778;54.346;10.210;2023-03-13T05:15:34;98981.72;;;6.94;100.00
68793;BME280;55778;54.346;10.210;2023-03-13T05:17:59;98959.88;;;6.95;100.00
68793;BME280;55778;54.346;10.210;2023-03-13T05:20:25;98964.13;;;6.98;100.00
68793;BME280;55778;54.346;10.210;2023-03-13T05:22:50;98953.13;;;6.99;100.00
68793;BME280;55778;54.346;10.210;2023-03-13T05:25:15;98933.13;;;7.00;100.00
68793;BME280;55778;54.346;10.210;2023-03-13T05:27:41;98938.56;;;7.00;100.00
68793;BME280;55778;54.346;10.210;2023-03-13T05:30:07;98933.66;;;7.04;100.00
68793;BME280;55778;54.346;10.210;2023-03-13T05:32:35;98918.25;;;7.04;100.00
68793;BME280;55778;54.346;10.210;2023-03-13T05:35:00;98919.78;;;7.07;100.00
68793;BME280;55778;54.346;10.210;2023-03-13T05:37:26;98913.50;;;7.06;100.00
68793;BME280;55778;54.346;10.210;2023-03-13T05:39:51;98907.09;;;7.07;100.00
68793;BME280;55778;54.346;10.210;2023-03-13T05:42:16;98893.22;;;7.10;100.00
68793;BME280;55778;54.346;10.210;2023-03-13T05:44:42;98894.91;;;7.11;100.00
68793;BME280;55778;54.346;10.210;2023-03-13T05:47:07;98883.03;;;7.12;100.00
68793;BME280;55778;54.346;10.210;2023-03-13T05:49:32;98865.63;;;7.15;100.00
68793;BME280;55778;54.346;10.210;2023-03-13T05:51:58;98868.16;;;7.16;100.00
68793;BME280;55778;54.346;10.210;2023-03-13T05:54:23;98859.00;;;7.17;100.00
68793;BME280;55778;54.346;10.210;2023-03-13T05:56:49;98858.66;;;7.20;100.00
68793;BME280;55778;54.346;10.210;2023-03-13T05:59:16;98855.78;;;7.22;100.00
68793;BME280;55778;54.346;10.210;2023-03-13T06:01:41;98850.38;;;7.22;100.00
68793;BME280;55778;54.346;10.210;2023-03-13T06:04:06;98851.72;;;7.26;100.00
68793;BME280;55778;54.346;10.210;2023-03-13T06:06:32;98841.03;;;7.24;100.00
68793;BME280;55778;54.346;10.210;2023-03-13T06:08:57;98837.50;;;7.24;100.00
68793;BME280;55778;54.346;10.210;2023-03-13T06:11:22;98833.44;;;7.28;100.00
68793;BME280;55778;54.346;10.210;2023-03-13T06:13:50;98827.84;;;7.29;100.00
68793;BME280;55778;54.346;10.210;2023-03-13T06:16:15;98826.81;;;7.30;100.00
68793;BME280;55778;54.346;10.210;2023-03-13T06:18:41;98810.38;;;7.32;100.00
68793;BME280;55778;54.346;10.210;2023-03-13T06:21:06;98800.88;;;7.36;100.00
68793;BME280;55778;54.346;10.210;2023-03-13T06:23:31;98791.94;;;7.35;100.00
68793;BME280;55778;54.346;10.210;2023-03-13T06:25:59;98789.72;;;7.39;100.00
68793;BME280;55778;54.346;10.210;2023-03-13T06:28:24;98788.19;;;7.44;100.00
68793;BME280;55778;54.346;10.210;2023-03-13T06:30:50;98783.41;;;7.46;100.00
68793;BME280;55778;54.346;10.210;2023-03-13T06:33:15;98781.22;;;7.50;100.00
68793;BME280;55778;54.346;10.210;2023-03-13T06:35:41;98756.66;;;7.51;100.00
68793;BME280;55778;54.346;10.210;2023-03-13T06:38:08;98772.56;;;7.54;100.00
68793;BME280;55778;54.346;10.210;2023-03-13T06:40:34;98762.41;;;7.56;100.00
68793;BME280;55778;54.346;10.210;2023-03-13T06:42:59;98749.69;;;7.57;100.00
68793;BME280;55778;54.346;10.210;2023-03-13T06:45:24;98752.72;;;7.62;100.00
68793;BME280;55778;54.346;10.210;2023-03-13T06:47:50;98757.09;;;7.63;100.00
68793;BME280;55778;54.346;10.210;2023-03-13T06:50:16;98732.34;;;7.66;100.00
68793;BME280;55778;54.346;10.210;2023-03-13T06:52:42;98737.41;;;7.69;100.00
68793;BME280;55778;54.346;10.210;2023-03-13T06:55:08;98726.41;;;7.70;100.00
68793;BME280;55778;54.346;10.210;2023-03-13T06:57:33;98730.78;;;7.71;100.00
68793;BME280;55778;54.346;10.210;2023-03-13T06:59:59;98710.63;;;7.74;100.00
68793;BME280;55778;54.346;10.210;2023-03-13T07:02:24;98711.63;;;7.73;100.00
68793;BME280;55778;54.346;10.210;2023-03-13T07:04:50;98715.88;;;7.75;100.00
68793;BME280;55778;54.346;10.210;2023-03-13T07:07:15;98706.22;;;7.73;100.00
68793;BME280;55778;54.346;10.210;2023-03-13T07:09:40;98694.19;;;7.75;100.00
68793;BME280;55778;54.346;10.210;2023-03-13T07:12:06;98686.53;;;7.79;100.00
68793;BME280;55778;54.346;10.210;2023-03-13T07:14:31;98685.34;;;7.81;100.00
68793;BME280;55778;54.346;10.210;2023-03-13T07:16:58;98656.00;;;7.85;100.00
68793;BME280;55778;54.346;10.210;2023-03-13T07:19:24;98657.69;;;7.86;100.00
68793;BME280;55778;54.346;10.210;2023-03-13T07:21:50;98674.63;;;7.88;100.00
68793;BME280;55778;54.346;10.210;2023-03-13T07:24:17;98681.22;;;7.93;100.00
68793;BME280;55778;54.346;10.210;2023-03-13T07:26:43;98660.34;;;7.94;100.00
68793;BME280;55778;54.346;10.210;2023-03-13T07:29:08;98642.53;;;7.99;100.00
68793;BME280;55778;54.346;10.210;2023-03-13T07:31:34;98630.47;;;8.02;100.00
68793;BME280;55778;54.346;10.210;2023-03-13T07:33:59;98637.19;;;8.06;100.00
68793;BME280;55778;54.346;10.210;2023-03-13T07:36:25;98623.28;;;8.09;100.00
68793;BME280;55778;54.346;10.210;2023-03-13T07:38:51;98622.19;;;8.18;100.00
68793;BME280;55778;54.346;10.210;2023-03-13T07:41:17;98617.19;;;8.30;100.00
68793;BME280;55778;54.346;10.210;2023-03-13T07:43:43;98615.06;;;8.40;100.00
68793;BME280;55778;54.346;10.210;2023-03-13T07:46:17;98610.47;;;8.40;100.00
68793;BME280;55778;54.346;10.210;2023-03-13T07:48:43;98621.13;;;8.42;100.00
68793;BME280;55778;54.346;10.210;2023-03-13T07:51:16;98609.91;;;8.45;100.00
68793;BME280;55778;54.346;10.210;2023-03-13T07:53:43;98611.72;;;8.52;100.00
68793;BME280;55778;54.346;10.210;2023-03-13T07:56:11;98598.81;;;8.54;100.00
68793;BME280;55778;54.346;10.210;2023-03-13T07:58:38;98613.88;;;8.57;100.00
68793;BME280;55778;54.346;10.210;2023-03-13T08:01:17;98604.13;;;8.62;100.00
68793;BME280;55778;54.346;10.210;2023-03-13T08:03:43;98590.56;;;8.62;100.00
68793;BME280;55778;54.346;10.210;2023-03-13T08:06:12;98593.75;;;8.66;100.00
68793;BME280;55778;54.346;10.210;2023-03-13T08:08:38;98587.94;;;8.69;100.00
68793;BME280;55778;54.346;10.210;2023-03-13T08:11:25;98598.44;;;8.72;100.00
68793;BME280;55778;54.346;10.210;2023-03-13T08:13:51;98580.53;;;8.77;100.00
68793;BME280;55778;54.346;10.210;2023-03-13T08:16:20;98582.06;;;8.80;100.00
68793;BME280;55778;54.346;10.210;2023-03-13T08:18:47;98587.28;;;8.81;100.00
68793;BME280;55778;54.346;10.210;2023-03-13T08:21:19;98571.66;;;8.83;100.00
68793;BME280;55778;54.346;10.210;2023-03-13T08:23:46;98584.66;;;8.88;100.00
68793;BME280;55778;54.346;10.210;2023-03-13T08:26:17;98571.38;;;8.93;100.00
68793;BME280;55778;54.346;10.210;2023-03-13T08:28:44;98576.06;;;8.99;100.00
68793;BME280;55778;54.346;10.210;2023-03-13T08:31:16;98570.44;;;9.00;100.00
68793;BME280;55778;54.346;10.210;2023-03-13T08:33:43;98574.44;;;9.04;100.00
68793;BME280;55778;54.346;10.210;2023-03-13T08:38:39;98577.69;;;9.14;100.00
68793;BME280;55778;54.346;10.210;2023-03-13T08:41:07;98574.41;;;9.19;100.00
68793;BME280;55778;54.346;10.210;2023-03-13T08:43:33;98553.78;;;9.24;100.00
68793;BME280;55778;54.346;10.210;2023-03-13T08:45:58;98566.41;;;9.32;100.00
68793;BME280;55778;54.346;10.210;2023-03-13T08:48:23;98553.56;;;9.40;100.00
68793;BME280;55778;54.346;10.210;2023-03-13T08:51:20;98559.00;;;9.40;100.00
68793;BME280;55778;54.346;10.210;2023-03-13T08:53:44;98529.53;;;9.44;100.00
68793;BME280;55778;54.346;10.210;2023-03-13T08:56:16;98535.91;;;9.51;100.00
68793;BME280;55778;54.346;10.210;2023-03-13T08:58:42;98528.47;;;9.59;100.00
68793;BME280;55778;54.346;10.210;2023-03-13T09:01:10;98532.19;;;9.58;100.00
68793;BME280;55778;54.346;10.210;2023-03-13T09:03:36;98535.00;;;9.65;100.00
68793;BME280;55778;54.346;10.210;2023-03-13T09:06:01;98533.97;;;9.66;100.00
68793;BME280;55778;54.346;10.210;2023-03-13T09:08:28;98527.94;;;9.70;100.00
68793;BME280;55778;54.346;10.210;2023-03-13T09:10:55;98518.56;;;9.73;100.00
68793;BME280;55778;54.346;10.210;2023-03-13T09:13:22;98508.97;;;9.77;100.00
68793;BME280;55778;54.346;10.210;2023-03-13T09:16:15;98510.25;;;9.81;100.00
68793;BME280;55778;54.346;10.210;2023-03-13T09:18:41;98505.72;;;9.88;100.00
68793;BME280;55778;54.346;10.210;2023-03-13T09:21:28;98495.94;;;9.93;100.00
68793;BME280;55778;54.346;10.210;2023-03-13T09:23:54;98515.88;;;10.00;100.00
68793;BME280;55778;54.346;10.210;2023-03-13T09:26:20;98499.53;;;10.00;100.00
68793;BME280;55778;54.346;10.210;2023-03-13T09:28:45;98494.38;;;10.05;100.00
68793;BME280;55778;54.346;10.210;2023-03-13T09:31:14;98511.59;;;10.13;100.00
68793;BME280;55778;54.346;10.210;2023-03-13T09:33:41;98497.88;;;10.21;100.00
68793;BME280;55778;54.346;10.210;2023-03-13T09:36:07;98485.34;;;10.26;100.00
68793;BME280;55778;54.346;10.210;2023-03-13T09:38:33;98498.97;;;10.33;100.00
68793;BME280;55778;54.346;10.210;2023-03-13T09:44:17;98491.53;;;10.48;100.00
68793;BME280;55778;54.346;10.210;2023-03-13T09:47:04;98489.06;;;10.53;100.00
68793;BME280;55778;54.346;10.210;2023-03-13T09:49:37;98485.53;;;10.59;100.00
68793;BME280;55778;54.346;10.210;2023-03-13T09:52:14;98489.09;;;10.59;100.00
68793;BME280;55778;54.346;10.210;2023-03-13T09:54:45;98499.59;;;10.62;100.00
68793;BME280;55778;54.346;10.210;2023-03-13T09:57:26;98489.13;;;10.66;100.00
68793;BME280;55778;54.346;10.210;2023-03-13T10:00:05;98493.13;;;10.70;100.00
68793;BME280;55778;54.346;10.210;2023-03-13T10:02:36;98496.09;;;10.75;100.00
68793;BME280;55778;54.346;10.210;2023-03-13T10:07:34;98504.91;;;10.83;100.00
68793;BME280;55778;54.346;10.210;2023-03-13T10:10:00;98491.94;;;10.85;100.00
68793;BME280;55778;54.346;10.210;2023-03-13T10:12:28;98514.41;;;10.94;100.00
68793;BME280;55778;54.346;10.210;2023-03-13T10:17:39;98501.88;;;10.99;100.00
68793;BME280;55778;54.346;10.210;2023-03-13T10:20:19;98533.72;;;10.99;100.00
68793;BME280;55778;54.346;10.210;2023-03-13T10:22:47;98516.72;;;10.90;100.00
68793;BME280;55778;54.346;10.210;2023-03-13T10:25:32;98531.84;;;10.99;100.00
68793;BME280;55778;54.346;10.210;2023-03-13T10:27:59;98511.88;;;10.92;100.00
68793;BME280;55778;54.346;10.210;2023-03-13T10:32:53;98535.19;;;10.95;100.00
68793;BME280;55778;54.346;10.210;2023-03-13T10:35:23;98556.59;;;10.98;100.00
68793;BME280;55778;54.346;10.210;2023-03-13T10:37:49;98532.28;;;11.03;100.00
68793;BME280;55778;54.346;10.210;2023-03-13T10:40:26;98514.94;;;11.23;100.00
68793;BME280;55778;54.346;10.210;2023-03-13T10:42:58;98521.94;;;11.39;100.00
68793;BME280;55778;54.346;10.210;2023-03-13T10:45:25;98526.16;;;11.48;100.00
68793;BME280;55778;54.346;10.210;2023-03-13T10:47:56;98524.25;;;11.48;100.00
68793;BME280;55778;54.346;10.210;2023-03-13T10:50:25;98526.59;;;11.58;100.00
68793;BME280;55778;54.346;10.210;2023-03-13T10:52:52;98530.44;;;11.70;100.00
68793;BME280;55778;54.346;10.210;2023-03-13T10:55:23;98515.94;;;11.82;100.00
68793;BME280;55778;54.346;10.210;2023-03-13T10:57:59;98512.84;;;11.98;100.00
68793;BME280;55778;54.346;10.210;2023-03-13T11:00:33;98530.69;;;12.01;100.00
68793;BME280;55778;54.346;10.210;2023-03-13T11:03:01;98530.03;;;11.99;100.00
68793;BME280;55778;54.346;10.210;2023-03-13T11:05:36;98515.78;;;11.97;100.00
68793;BME280;55778;54.346;10.210;2023-03-13T11:08:24;98513.22;;;12.02;100.00
68793;BME280;55778;54.346;10.210;2023-03-13T11:11:05;98504.44;;;12.00;100.00
68793;BME280;55778;54.346;10.210;2023-03-13T11:13:42;98522.28;;;12.09;100.00
68793;BME280;55778;54.346;10.210;2023-03-13T11:16:19;98514.09;;;12.09;100.00
68793;BME280;55778;54.346;10.210;2023-03-13T11:21:25;98509.03;;;12.26;100.00
68793;BME280;55778;54.346;10.210;2023-03-13T11:24:02;98515.13;;;12.47;100.00
68793;BME280;55778;54.346;10.210;2023-03-13T11:26:38;98505.22;;;12.53;100.00
68793;BME280;55778;54.346;10.210;2023-03-13T11:29:37;98522.00;;;12.63;100.00
68793;BME280;55778;54.346;10.210;2023-03-13T11:32:16;98517.56;;;12.81;100.00
68793;BME280;55778;54.346;10.210;2023-03-13T11:34:52;98511.19;;;12.94;97.67
68793;BME280;55778;54.346;10.210;2023-03-13T11:37:20;98487.53;;;13.32;96.59
68793;BME280;55778;54.346;10.210;2023-03-13T11:39:49;98484.13;;;13.36;93.84
68793;BME280;55778;54.346;10.210;2023-03-13T11:53:06;98481.72;;;13.53;88.22
68793;BME280;55778;54.346;10.210;2023-03-13T12:01:19;98505.28;;;13.54;88.09
68793;BME280;55778;54.346;10.210;2023-03-13T12:04:00;98479.56;;;13.61;87.22
68793;BME280;55778;54.346;10.210;2023-03-13T12:06:31;98478.34;;;13.51;87.27
68793;BME280;55778;54.346;10.210;2023-03-13T12:09:08;98515.88;;;13.44;87.85
68793;BME280;55778;54.346;10.210;2023-03-13T12:11:39;98509.75;;;13.48;85.36
68793;BME280;55778;54.346;10.210;2023-03-13T12:14:27;98493.47;;;13.60;83.81
68793;BME280;55778;54.346;10.210;2023-03-13T12:17:02;98510.53;;;13.55;82.29
68793;BME280;55778;54.346;10.210;2023-03-13T12:19:33;98497.09;;;13.47;81.83
68793;BME280;55778;54.346;10.210;2023-03-13T12:22:16;98509.53;;;13.50;80.71
68793;BME280;55778;54.346;10.210;2023-03-13T12:25:05;98518.31;;;13.58;80.86
68793;BME280;55778;54.346;10.210;2023-03-13T12:27:42;98511.13;;;13.57;78.48
68793;BME280;55778;54.346;10.210;2023-03-13T12:35:31;98495.78;;;13.87;77.88
68793;BME280;55778;54.346;10.210;2023-03-13T12:40:54;98496.41;;;13.89;76.23
68793;BME280;55778;54.346;10.210;2023-03-13T12:43:32;98511.84;;;13.84;76.81
68793;BME280;55778;54.346;10.210;2023-03-13T12:48:39;98484.25;;;13.85;76.97
68793;BME280;55778;54.346;10.210;2023-03-13T12:51:41;98471.16;;;13.87;77.09
68793;BME280;55778;54.346;10.210;2023-03-13T12:57:08;98460.97;;;13.70;76.48
68793;BME280;55778;54.346;10.210;2023-03-13T12:59:43;98472.19;;;13.93;77.50
68793;BME280;55778;54.346;10.210;2023-03-13T13:02:19;98471.47;;;13.73;76.29
68793;BME280;55778;54.346;10.210;2023-03-13T13:04:47;98463.44;;;13.78;76.98
68793;BME280;55778;54.346;10.210;2023-03-13T13:07:33;98454.56;;;13.82;77.28
68793;BME280;55778;54.346;10.210;2023-03-13T13:10:14;98454.13;;;13.85;76.75
68793;BME280;55778;54.346;10.210;2023-03-13T13:12:46;98449.25;;;13.87;74.54
68793;BME280;55778;54.346;10.210;2023-03-13T13:15:22;98449.25;;;13.87;73.77
68793;BME280;55778;54.346;10.210;2023-03-13T13:18:25;98433.72;;;13.81;71.72
68793;BME280;55778;54.346;10.210;2023-03-13T13:23:40;98439.91;;;13.95;73.12
68793;BME280;55778;54.346;10.210;2023-03-13T13:28:55;98452.75;;;13.94;71.29
68793;BME280;55778;54.346;10.210;2023-03-13T13:39:44;98405.13;;;14.20;68.63
68793;BME280;55778;54.346;10.210;2023-03-13T13:47:43;98382.63;;;14.18;68.55
68793;BME280;55778;54.346;10.210;2023-03-13T13:50:28;98396.50;;;14.23;68.91
68793;BME280;55778;54.346;10.210;2023-03-13T13:53:22;98386.47;;;14.35;69.03
68793;BME280;55778;54.346;10.210;2023-03-13T13:55:53;98389.88;;;14.31;68.92
68793;BME280;55778;54.346;10.210;2023-03-13T13:58:22;98374.56;;;14.23;69.38
68793;BME280;55778;54.346;10.210;2023-03-13T14:03:22;98370.59;;;14.19;70.92
68793;BME280;55778;54.346;10.210;2023-03-13T14:05:53;98372.03;;;14.22;70.92
68793;BME280;55778;54.346;10.210;2023-03-13T14:08:28;98371.22;;;14.21;70.78
68793;BME280;55778;54.346;10.210;2023-03-13T14:13:38;98357.22;;;14.29;70.69
68793;BME280;55778;54.346;10.210;2023-03-13T14:16:20;98363.22;;;14.20;71.71
68793;BME280;55778;54.346;10.210;2023-03-13T14:18:47;98372.94;;;14.16;72.04